Time;durP1;ratioP1;P1;durP2;ratioP2;P2;SDS_P1;SDS_P2;PMS_P1;PMS_P2;Temp;Humidity;BMP_temperature;BMP_pressure;BME280_temperature;BME280_humidity;BME280_pressure;Samples;Min_cycle;Max_cycle;Signal;HPM_P1;HPM_P2
2023/03/20 00:00:36;;;;;;;;;;;8.40;99.90;;;;;;5076303;27;19991;-80
2023/03/20 00:03:02;;;;;;;;;;;8.40;99.90;;;;;;5081687;28;20454;-81
2023/03/20 00:05:29;;;;;;;;;;;8.40;99.90;;;;;;5079297;28;19934;-80
2023/03/20 00:07:56;;;;;;;;;;;8.40;99.90;;;;;;5112195;27;19925;-79
2023/03/20 00:10:24;;;;;;;;;;;8.40;99.90;;;;;;5086875;27;19923;-80
2023/03/20 00:12:50;;;;;;;;;;;8.40;99.90;;;;;;5094870;27;19980;-80
2023/03/20 00:15:27;;;;;;;;;;;8.40;99.90;;;;;;5094041;28;19978;-80
2023/03/20 00:17:53;;;;;;;;;;;8.40;99.90;;;;;;5096173;28;19931;-80
2023/03/20 00:20:19;;;;;;;;;;;8.40;99.90;;;;;;5127701;27;20014;-80
2023/03/20 00:22:44;;;;;;;;;;;8.40;99.90;;;;;;5101566;28;19989;-80
2023/03/20 00:25:18;;;;;;;;;;;8.30;99.90;;;;;;5073685;28;19943;-80
2023/03/20 00:27:44;;;;;;;;;;;8.30;99.90;;;;;;5084877;28;20000;-80
2023/03/20 00:30:28;;;;;;;;;;;8.30;99.90;;;;;;5085062;28;19924;-80
2023/03/20 00:32:55;;;;;;;;;;;8.30;99.90;;;;;;5085915;28;19924;-80
2023/03/20 00:35:22;;;;;;;;;;;8.30;99.90;;;;;;5085719;28;19944;-80
2023/03/20 00:37:48;;;;;;;;;;;8.30;99.90;;;;;;5086324;28;19979;-80
2023/03/20 00:40:14;;;;;;;;;;;8.30;99.90;;;;;;5084954;28;19930;-80
2023/03/20 00:42:40;;;;;;;;;;;8.30;99.90;;;;;;5068676;28;19936;-80
2023/03/20 00:45:09;;;;;;;;;;;8.30;99.90;;;;;;5081780;27;19927;-80
2023/03/20 00:47:36;;;;;;;;;;;8.30;99.90;;;;;;5078663;28;19923;-80
2023/03/20 00:50:06;;;;;;;;;;;8.30;99.90;;;;;;5121808;27;20602;-80
2023/03/20 00:52:31;;;;;;;;;;;8.30;99.90;;;;;;5122563;27;19924;-80
2023/03/20 00:54:57;;;;;;;;;;;8.30;99.90;;;;;;5079906;28;19931;-80
2023/03/20 00:57:28;;;;;;;;;;;8.30;99.90;;;;;;5080006;27;20326;-80
2023/03/20 01:00:13;;;;;;;;;;;8.30;99.90;;;;;;5097946;28;19962;-81
2023/03/20 01:02:38;;;;;;;;;;;8.30;99.90;;;;;;5104048;28;19931;-81
2023/03/20 01:05:04;;;;;;;;;;;8.30;99.90;;;;;;5067422;28;19950;-81
2023/03/20 01:07:30;;;;;;;;;;;8.20;99.90;;;;;;5096311;28;19924;-81
2023/03/20 01:09:55;;;;;;;;;;;8.20;99.90;;;;;;5074760;28;19974;-80
2023/03/20 01:12:21;;;;;;;;;;;8.20;99.90;;;;;;5088169;27;19930;-80
2023/03/20 01:14:57;;;;;;;;;;;8.20;99.90;;;;;;5069358;27;19923;-80
2023/03/20 01:17:23;;;;;;;;;;;8.20;99.90;;;;;;5112889;28;20233;-80
2023/03/20 01:19:49;;;;;;;;;;;8.20;99.90;;;;;;5099816;28;20415;-80
2023/03/20 01:22:16;;;;;;;;;;;8.20;99.90;;;;;;5075635;28;19924;-80
2023/03/20 01:24:42;;;;;;;;;;;8.20;99.90;;;;;;5109422;28;19938;-81
2023/03/20 01:27:15;;;;;;;;;;;8.20;99.90;;;;;;5099869;28;19995;-80
2023/03/20 01:29:41;;;;;;;;;;;8.20;99.90;;;;;;5070651;28;19950;-80
2023/03/20 01:32:10;;;;;;;;;;;8.10;99.90;;;;;;5093005;28;20457;-80
2023/03/20 01:34:35;;;;;;;;;;;8.10;99.90;;;;;;5078504;28;19924;-81
2023/03/20 01:37:01;;;;;;;;;;;8.10;99.90;;;;;;5081002;28;20015;-80
2023/03/20 01:39:30;;;;;;;;;;;8.10;99.90;;;;;;5073129;28;19931;-81
2023/03/20 01:41:56;;;;;;;;;;;8.10;99.90;;;;;;5096989;28;20740;-80
2023/03/20 01:44:21;;;;;;;;;;;8.10;99.90;;;;;;5083762;28;19924;-80
2023/03/20 01:46:48;;;;;;;;;;;8.10;99.90;;;;;;5077070;28;19927;-80
2023/03/20 01:49:20;;;;;;;;;;;8.10;99.90;;;;;;5078777;28;20022;-81
2023/03/20 01:51:46;;;;;;;;;;;8.10;99.90;;;;;;5108895;28;19935;-81
2023/03/20 01:54:15;;;;;;;;;;;8.10;99.90;;;;;;5102497;28;20009;-80
2023/03/20 01:56:47;;;;;;;;;;;8.10;99.90;;;;;;5083076;28;19924;-80
2023/03/20 01:59:18;;;;;;;;;;;8.00;99.90;;;;;;5110167;28;19924;-80
2023/03/20 02:01:44;;;;;;;;;;;8.00;99.90;;;;;;5077366;28;19934;-80
2023/03/20 02:04:10;;;;;;;;;;;8.00;99.90;;;;;;5094553;28;19979;-80
2023/03/20 02:06:36;;;;;;;;;;;8.10;99.90;;;;;;5087963;28;20336;-80
2023/03/20 02:09:03;;;;;;;;;;;8.00;99.90;;;;;;5075142;28;19923;-81
2023/03/20 02:11:29;;;;;;;;;;;8.00;99.90;;;;;;5082766;28;19928;-80
2023/03/20 02:13:57;;;;;;;;;;;8.00;99.90;;;;;;5082164;28;19927;-81
2023/03/20 02:16:22;;;;;;;;;;;8.00;99.90;;;;;;5085417;28;19928;-80
2023/03/20 02:18:50;;;;;;;;;;;8.00;99.90;;;;;;5085420;28;19935;-80
2023/03/20 02:21:31;;;;;;;;;;;8.00;99.90;;;;;;5100538;28;19930;-80
2023/03/20 02:23:56;;;;;;;;;;;8.00;99.90;;;;;;5084722;28;19923;-81
2023/03/20 02:26:30;;;;;;;;;;;8.00;99.90;;;;;;5099770;28;19928;-81
2023/03/20 02:28:56;;;;;;;;;;;8.00;99.90;;;;;;5090153;28;19978;-80
2023/03/20 02:31:25;;;;;;;;;;;8.00;99.90;;;;;;5100758;28;19957;-80
2023/03/20 02:33:53;;;;;;;;;;;8.00;99.90;;;;;;5106020;28;19974;-80
2023/03/20 02:36:22;;;;;;;;;;;8.00;99.90;;;;;;5081457;28;19924;-81
2023/03/20 02:38:53;;;;;;;;;;;8.00;99.90;;;;;;5086247;28;19924;-80
2023/03/20 02:41:22;;;;;;;;;;;8.00;99.90;;;;;;5080023;28;19991;-80
2023/03/20 02:43:48;;;;;;;;;;;8.00;99.90;;;;;;5078948;28;20015;-81
2023/03/20 02:46:20;;;;;;;;;;;8.00;99.90;;;;;;5081744;28;19978;-80
2023/03/20 02:48:51;;;;;;;;;;;8.00;99.90;;;;;;5097833;28;19928;-80
2023/03/20 02:51:21;;;;;;;;;;;8.00;99.90;;;;;;5090014;27;19954;-80
2023/03/20 02:54:02;;;;;;;;;;;8.00;99.90;;;;;;5071328;27;19963;-81
2023/03/20 02:56:27;;;;;;;;;;;8.00;99.90;;;;;;5092374;28;19964;-80
2023/03/20 02:59:01;;;;;;;;;;;8.00;99.90;;;;;;5100497;27;19923;-80
2023/03/20 03:01:34;;;;;;;;;;;8.00;99.90;;;;;;5074645;28;19982;-80
2023/03/20 03:04:01;;;;;;;;;;;8.00;99.90;;;;;;5105085;27;19923;-80
2023/03/20 03:06:31;;;;;;;;;;;8.00;99.90;;;;;;5081933;27;19935;-80
2023/03/20 03:09:03;;;;;;;;;;;8.00;99.90;;;;;;5091220;27;19935;-80
2023/03/20 03:11:29;;;;;;;;;;;8.00;99.90;;;;;;5080701;27;19983;-80
2023/03/20 03:13:55;;;;;;;;;;;8.00;99.90;;;;;;5067624;27;19931;-80
2023/03/20 03:16:24;;;;;;;;;;;8.00;99.90;;;;;;5110120;27;19924;-80
2023/03/20 03:18:53;;;;;;;;;;;8.00;99.90;;;;;;5078637;27;19928;-80
2023/03/20 03:21:19;;;;;;;;;;;8.00;99.90;;;;;;5124898;27;19928;-80
2023/03/20 03:23:47;;;;;;;;;;;8.00;99.90;;;;;;5076466;28;19999;-80
2023/03/20 03:26:19;;;;;;;;;;;8.00;99.90;;;;;;5084147;28;19963;-81
2023/03/20 03:28:51;;;;;;;;;;;8.00;99.90;;;;;;5098388;28;19928;-80
2023/03/20 03:31:17;;;;;;;;;;;8.00;99.90;;;;;;5084472;27;19931;-80
2023/03/20 03:33:50;;;;;;;;;;;8.00;99.90;;;;;;5083171;27;19923;-80
2023/03/20 03:36:36;;;;;;;;;;;8.00;99.90;;;;;;5094288;27;19931;-80
2023/03/20 03:39:09;;;;;;;;;;;8.00;99.90;;;;;;5092621;28;19935;-80
2023/03/20 03:41:35;;;;;;;;;;;8.00;99.90;;;;;;5096329;28;19935;-80
2023/03/20 03:44:05;;;;;;;;;;;8.00;99.90;;;;;;5074514;28;19928;-80
2023/03/20 03:46:37;;;;;;;;;;;8.00;99.90;;;;;;5081953;28;19986;-80
2023/03/20 03:49:04;;;;;;;;;;;8.00;99.90;;;;;;5077649;27;19924;-80
2023/03/20 03:51:31;;;;;;;;;;;8.00;99.90;;;;;;5081261;27;19986;-80
2023/03/20 03:53:59;;;;;;;;;;;7.90;99.90;;;;;;5095749;27;19935;-80
2023/03/20 03:56:26;;;;;;;;;;;8.00;99.90;;;;;;5125398;27;20386;-80
2023/03/20 03:58:55;;;;;;;;;;;7.90;99.90;;;;;;5080754;27;19984;-80
2023/03/20 04:01:21;;;;;;;;;;;8.00;99.90;;;;;;5123754;27;20550;-80
2023/03/20 04:03:49;;;;;;;;;;;8.00;99.90;;;;;;5074058;27;20432;-81
2023/03/20 04:06:15;;;;;;;;;;;7.90;99.90;;;;;;5098122;27;20278;-80
2023/03/20 04:08:41;;;;;;;;;;;7.90;99.90;;;;;;5124876;27;19969;-81
2023/03/20 04:11:27;;;;;;;;;;;7.90;99.90;;;;;;5100049;28;19932;-81
2023/03/20 04:13:53;;;;;;;;;;;7.90;99.90;;;;;;5054912;28;19983;-80
2023/03/20 04:16:19;;;;;;;;;;;7.80;99.90;;;;;;5083513;27;20057;-80
2023/03/20 04:18:46;;;;;;;;;;;7.80;99.90;;;;;;5082680;27;19934;-80
2023/03/20 04:21:11;;;;;;;;;;;7.80;99.90;;;;;;5080448;28;19959;-80
2023/03/20 04:23:37;;;;;;;;;;;7.70;99.90;;;;;;5078645;28;19931;-80
2023/03/20 04:26:04;;;;;;;;;;;7.70;99.90;;;;;;5094397;28;19930;-80
2023/03/20 04:28:29;;;;;;;;;;;7.70;99.90;;;;;;5080900;28;19924;-80
2023/03/20 04:30:56;;;;;;;;;;;7.70;99.90;;;;;;5101393;27;19931;-81
2023/03/20 04:33:22;;;;;;;;;;;7.70;99.90;;;;;;5081671;28;19946;-80
2023/03/20 04:35:47;;;;;;;;;;;7.70;99.90;;;;;;5105791;28;19927;-81
2023/03/20 04:38:13;;;;;;;;;;;7.70;99.90;;;;;;5075005;28;20006;-81
2023/03/20 04:40:39;;;;;;;;;;;7.70;99.90;;;;;;5082064;28;19928;-80
2023/03/20 04:43:05;;;;;;;;;;;7.70;99.90;;;;;;5070458;28;19969;-81
2023/03/20 04:45:30;;;;;;;;;;;7.70;99.90;;;;;;5084208;27;19924;-80
2023/03/20 04:47:56;;;;;;;;;;;7.70;99.90;;;;;;5072330;28;19994;-80
2023/03/20 04:50:21;;;;;;;;;;;7.70;99.90;;;;;;5081993;28;19931;-80
2023/03/20 04:52:47;;;;;;;;;;;7.70;99.90;;;;;;5078053;28;19924;-80
2023/03/20 04:55:12;;;;;;;;;;;7.70;99.90;;;;;;5085883;27;19923;-81
2023/03/20 04:57:38;;;;;;;;;;;7.70;99.90;;;;;;5068904;27;20276;-80
2023/03/20 05:00:04;;;;;;;;;;;7.70;99.90;;;;;;5078390;28;20337;-80
2023/03/20 05:02:30;;;;;;;;;;;7.70;99.90;;;;;;5099861;28;19923;-80
2023/03/20 05:04:55;;;;;;;;;;;7.70;99.90;;;;;;5086641;27;19931;-81
2023/03/20 05:07:21;;;;;;;;;;;7.60;99.90;;;;;;5100942;27;19923;-80
2023/03/20 05:09:46;;;;;;;;;;;7.60;99.90;;;;;;5088550;28;19931;-80
2023/03/20 05:12:12;;;;;;;;;;;7.60;99.90;;;;;;5070621;28;19936;-80
2023/03/20 05:14:38;;;;;;;;;;;7.60;99.90;;;;;;5113212;28;19931;-80
2023/03/20 05:17:03;;;;;;;;;;;7.60;99.90;;;;;;5078793;28;19928;-80
2023/03/20 05:19:29;;;;;;;;;;;7.60;99.90;;;;;;5097644;27;19989;-80
2023/03/20 05:21:54;;;;;;;;;;;7.60;99.90;;;;;;5104354;28;19949;-80
2023/03/20 05:24:20;;;;;;;;;;;7.60;99.90;;;;;;5075785;28;19931;-80
2023/03/20 05:26:46;;;;;;;;;;;7.60;99.90;;;;;;5076173;28;19973;-80
2023/03/20 05:29:11;;;;;;;;;;;7.60;99.90;;;;;;5085801;28;19933;-81
2023/03/20 05:31:37;;;;;;;;;;;7.60;99.90;;;;;;5084961;28;20006;-80
2023/03/20 05:34:04;;;;;;;;;;;7.60;99.90;;;;;;5083497;28;20034;-80
2023/03/20 05:36:29;;;;;;;;;;;7.60;99.90;;;;;;5102475;28;19955;-80
2023/03/20 05:38:55;;;;;;;;;;;7.60;99.90;;;;;;5079198;28;19932;-80
2023/03/20 05:41:21;;;;;;;;;;;7.60;99.90;;;;;;5094283;28;19924;-80
2023/03/20 05:43:47;;;;;;;;;;;7.60;99.90;;;;;;5093496;28;19931;-80
2023/03/20 05:46:12;;;;;;;;;;;7.70;99.90;;;;;;5115989;28;19970;-80
2023/03/20 05:48:38;;;;;;;;;;;7.60;99.90;;;;;;5077393;28;19931;-80
2023/03/20 05:51:04;;;;;;;;;;;7.70;99.90;;;;;;5080928;28;19928;-80
2023/03/20 05:53:29;;;;;;;;;;;7.60;99.90;;;;;;5108630;28;19931;-81
2023/03/20 05:55:55;;;;;;;;;;;7.70;99.90;;;;;;5064217;28;20000;-81
2023/03/20 05:58:21;;;;;;;;;;;7.70;99.90;;;;;;5083992;28;20450;-80
2023/03/20 06:00:46;;;;;;;;;;;7.70;99.90;;;;;;5076795;28;19983;-80
2023/03/20 06:03:12;;;;;;;;;;;7.60;99.90;;;;;;5080344;28;19928;-80
2023/03/20 06:05:37;;;;;;;;;;;7.70;99.90;;;;;;5063362;28;19924;-80
2023/03/20 06:08:03;;;;;;;;;;;7.70;99.90;;;;;;5079200;28;19930;-80
2023/03/20 06:10:29;;;;;;;;;;;7.70;99.90;;;;;;5109151;28;20242;-80
2023/03/20 06:12:56;;;;;;;;;;;7.80;99.90;;;;;;5085790;28;19924;-80
2023/03/20 06:15:21;;;;;;;;;;;7.70;99.90;;;;;;5087603;28;20391;-80
2023/03/20 06:17:47;;;;;;;;;;;7.70;99.90;;;;;;5090631;28;19932;-80
2023/03/20 06:20:13;;;;;;;;;;;7.70;99.90;;;;;;5089879;28;19955;-80
2023/03/20 06:22:38;;;;;;;;;;;7.70;99.90;;;;;;5073756;28;19932;-80
2023/03/20 06:25:04;;;;;;;;;;;7.80;99.90;;;;;;5070822;28;19968;-80
2023/03/20 06:27:30;;;;;;;;;;;7.80;99.90;;;;;;5099588;28;19975;-80
2023/03/20 06:29:56;;;;;;;;;;;7.80;99.90;;;;;;5094624;28;19927;-81
2023/03/20 06:32:21;;;;;;;;;;;7.90;99.90;;;;;;5108209;27;19982;-80
2023/03/20 06:34:47;;;;;;;;;;;7.90;99.90;;;;;;5079733;28;19924;-80
2023/03/20 06:37:12;;;;;;;;;;;7.90;99.90;;;;;;5116289;28;19931;-80
2023/03/20 06:39:38;;;;;;;;;;;7.90;99.90;;;;;;5104105;28;19971;-80
2023/03/20 06:42:04;;;;;;;;;;;8.00;99.90;;;;;;5101975;28;19928;-79
2023/03/20 06:44:29;;;;;;;;;;;8.00;99.90;;;;;;5074975;27;20373;-80
2023/03/20 06:46:55;;;;;;;;;;;8.00;99.90;;;;;;5104658;28;19993;-80
2023/03/20 06:49:21;;;;;;;;;;;8.10;99.90;;;;;;5087043;28;19934;-80
2023/03/20 06:51:47;;;;;;;;;;;8.00;99.90;;;;;;5079580;27;20319;-80
2023/03/20 06:54:12;;;;;;;;;;;8.00;99.90;;;;;;5098775;28;20266;-80
2023/03/20 06:56:38;;;;;;;;;;;8.00;99.90;;;;;;5095462;28;19950;-80
2023/03/20 06:59:03;;;;;;;;;;;8.00;99.90;;;;;;5097955;27;19924;-80
2023/03/20 07:01:29;;;;;;;;;;;8.10;99.90;;;;;;5096068;27;20344;-80
2023/03/20 07:03:55;;;;;;;;;;;8.10;99.90;;;;;;5124844;27;19970;-80
2023/03/20 07:06:21;;;;;;;;;;;8.10;99.90;;;;;;5082500;27;20128;-80
2023/03/20 07:08:47;;;;;;;;;;;8.20;99.90;;;;;;5097291;27;19924;-81
2023/03/20 07:11:13;;;;;;;;;;;8.20;99.90;;;;;;5112480;28;19931;-80
2023/03/20 07:13:39;;;;;;;;;;;8.20;99.90;;;;;;5090496;27;19938;-80
2023/03/20 07:16:04;;;;;;;;;;;8.30;99.90;;;;;;5107857;27;20016;-80
2023/03/20 07:18:30;;;;;;;;;;;8.30;99.90;;;;;;5083504;27;19950;-80
2023/03/20 07:21:01;;;;;;;;;;;8.40;99.90;;;;;;5064869;27;19928;-80
2023/03/20 07:23:28;;;;;;;;;;;8.40;99.90;;;;;;5080090;28;19973;-81
2023/03/20 07:25:53;;;;;;;;;;;8.40;99.90;;;;;;5075027;28;19923;-80
2023/03/20 07:28:19;;;;;;;;;;;8.40;99.90;;;;;;5123422;27;20361;-81
2023/03/20 07:30:45;;;;;;;;;;;8.50;99.90;;;;;;5078797;27;19923;-80
2023/03/20 07:33:10;;;;;;;;;;;8.50;99.90;;;;;;5076660;27;19928;-81
2023/03/20 07:35:38;;;;;;;;;;;8.40;99.90;;;;;;5095421;27;19946;-81
2023/03/20 07:38:04;;;;;;;;;;;8.40;99.90;;;;;;5082970;27;19923;-81
2023/03/20 07:40:30;;;;;;;;;;;8.50;99.90;;;;;;5080704;28;19931;-80
2023/03/20 07:42:56;;;;;;;;;;;8.50;99.90;;;;;;5078540;27;19924;-80
2023/03/20 07:45:22;;;;;;;;;;;8.50;99.90;;;;;;5066638;28;19935;-80
2023/03/20 07:47:47;;;;;;;;;;;8.50;99.90;;;;;;5120720;27;20298;-80
2023/03/20 07:50:13;;;;;;;;;;;8.60;99.90;;;;;;5096905;28;19931;-81
2023/03/20 07:52:39;;;;;;;;;;;8.60;99.90;;;;;;5104611;27;19928;-80
2023/03/20 07:55:06;;;;;;;;;;;8.70;99.90;;;;;;5075087;27;19924;-81
2023/03/20 07:57:31;;;;;;;;;;;8.70;99.90;;;;;;5091865;28;19949;-80
2023/03/20 07:59:57;;;;;;;;;;;8.80;99.90;;;;;;5074756;27;19924;-81
2023/03/20 08:02:23;;;;;;;;;;;8.80;99.90;;;;;;5080677;27;19987;-81
2023/03/20 08:04:48;;;;;;;;;;;8.80;99.90;;;;;;5099078;28;20008;-81
2023/03/20 08:07:14;;;;;;;;;;;8.90;99.90;;;;;;5073476;28;19931;-81
2023/03/20 08:09:40;;;;;;;;;;;9.00;99.90;;;;;;5093631;28;19924;-81
2023/03/20 08:12:05;;;;;;;;;;;9.00;99.90;;;;;;5083198;27;19923;-80
2023/03/20 08:14:31;;;;;;;;;;;9.10;99.90;;;;;;5096071;28;20382;-80
2023/03/20 08:16:57;;;;;;;;;;;9.10;99.90;;;;;;5071767;28;19928;-81
2023/03/20 08:19:23;;;;;;;;;;;9.20;99.90;;;;;;5094629;28;19927;-81
2023/03/20 08:21:48;;;;;;;;;;;9.20;99.90;;;;;;5077510;28;20410;-81
2023/03/20 08:24:14;;;;;;;;;;;9.30;99.90;;;;;;5083046;28;19924;-81
2023/03/20 08:26:40;;;;;;;;;;;9.30;99.90;;;;;;5084425;28;19924;-81
2023/03/20 08:29:06;;;;;;;;;;;9.40;99.90;;;;;;5085341;28;19923;-80
2023/03/20 08:31:31;;;;;;;;;;;9.50;99.90;;;;;;5101051;27;20314;-81
2023/03/20 08:33:57;;;;;;;;;;;9.60;99.90;;;;;;5106694;28;19973;-81
2023/03/20 08:36:23;;;;;;;;;;;9.80;99.90;;;;;;5102830;28;19924;-81
2023/03/20 08:38:49;;;;;;;;;;;10.00;99.90;;;;;;5074074;28;20412;-81
2023/03/20 08:41:15;;;;;;;;;;;10.20;99.90;;;;;;5081839;28;19924;-80
2023/03/20 08:43:41;;;;;;;;;;;10.30;99.90;;;;;;5082655;28;19928;-80
2023/03/20 08:46:06;;;;;;;;;;;10.30;99.90;;;;;;5102402;28;19927;-81
2023/03/20 08:48:32;;;;;;;;;;;10.30;99.90;;;;;;5080831;28;19931;-81
2023/03/20 08:50:58;;;;;;;;;;;10.30;99.90;;;;;;5131682;27;20014;-82
2023/03/20 08:53:23;;;;;;;;;;;10.30;99.90;;;;;;5085327;28;19955;-82
2023/03/20 08:55:50;;;;;;;;;;;10.30;99.90;;;;;;5102954;27;19968;-82
2023/03/20 08:58:16;;;;;;;;;;;10.30;99.90;;;;;;5105576;28;19947;-82
2023/03/20 09:00:41;;;;;;;;;;;10.40;99.90;;;;;;5073538;28;20404;-82
2023/03/20 09:03:10;;;;;;;;;;;10.40;99.90;;;;;;5134143;27;19924;-82
2023/03/20 09:05:36;;;;;;;;;;;10.60;99.90;;;;;;5085388;28;20697;-82
2023/03/20 09:08:01;;;;;;;;;;;10.80;99.90;;;;;;5085101;28;19996;-82
2023/03/20 09:10:27;;;;;;;;;;;11.00;99.90;;;;;;5085465;28;19924;-82
2023/03/20 09:12:52;;;;;;;;;;;11.10;99.90;;;;;;5083439;28;19932;-82
2023/03/20 09:15:18;;;;;;;;;;;11.30;99.90;;;;;;5104133;28;19951;-81
2023/03/20 09:17:44;;;;;;;;;;;11.30;99.90;;;;;;5068132;28;19924;-82
2023/03/20 09:20:09;;;;;;;;;;;11.40;99.90;;;;;;5071751;28;19924;-82
2023/03/20 09:22:35;;;;;;;;;;;11.40;99.90;;;;;;5096623;28;19962;-82
2023/03/20 09:25:01;;;;;;;;;;;11.60;99.90;;;;;;5090007;28;19924;-82
2023/03/20 09:27:26;;;;;;;;;;;11.60;99.90;;;;;;5097940;28;19939;-82
2023/03/20 09:29:52;;;;;;;;;;;11.60;99.90;;;;;;5093542;28;19928;-82
2023/03/20 09:32:18;;;;;;;;;;;11.60;99.90;;;;;;5081430;28;19924;-82
2023/03/20 09:34:43;;;;;;;;;;;11.60;99.90;;;;;;5076801;28;19924;-82
2023/03/20 09:37:09;;;;;;;;;;;11.60;99.90;;;;;;5071424;28;19928;-81
2023/03/20 09:39:35;;;;;;;;;;;11.60;99.90;;;;;;5077432;28;19924;-82
2023/03/20 09:42:21;;;;;;;;;;;11.70;99.90;;;;;;5058798;28;20015;-82
2023/03/20 09:44:46;;;;;;;;;;;11.80;99.90;;;;;;5028628;28;19923;-82
2023/03/20 09:47:29;;;;;;;;;;;11.90;99.90;;;;;;5080542;28;19938;-81
2023/03/20 09:50:05;;;;;;;;;;;11.90;99.90;;;;;;5099936;28;19928;-82
2023/03/20 09:52:32;;;;;;;;;;;12.10;99.90;;;;;;5126783;27;19935;-82
2023/03/20 09:55:17;;;;;;;;;;;12.10;99.90;;;;;;5124691;27;19928;-82
2023/03/20 09:57:50;;;;;;;;;;;12.10;99.90;;;;;;5085732;28;19930;-81
2023/03/20 10:00:27;;;;;;;;;;;12.20;99.90;;;;;;5119027;27;19935;-82
2023/03/20 10:02:57;;;;;;;;;;;12.20;99.90;;;;;;5085315;28;19949;-83
2023/03/20 10:05:25;;;;;;;;;;;12.20;99.90;;;;;;5086673;28;19974;-83
2023/03/20 10:07:53;;;;;;;;;;;12.20;99.90;;;;;;5124454;27;20432;-82
2023/03/20 10:10:19;;;;;;;;;;;12.10;99.90;;;;;;5083118;28;19975;-82
2023/03/20 10:12:55;;;;;;;;;;;11.80;99.90;;;;;;5112725;28;19931;-82
2023/03/20 10:15:27;;;;;;;;;;;11.70;99.90;;;;;;5094042;28;20290;-82
2023/03/20 10:18:06;;;;;;;;;;;11.40;99.90;;;;;;5108321;28;19928;-82
2023/03/20 10:20:31;;;;;;;;;;;11.30;99.90;;;;;;5107311;27;19949;-82
2023/03/20 10:23:19;;;;;;;;;;;11.30;99.90;;;;;;5091219;28;19924;-82
2023/03/20 10:25:49;;;;;;;;;;;11.30;99.90;;;;;;5083668;28;19979;-82
2023/03/20 10:28:25;;;;;;;;;;;11.30;99.90;;;;;;5118988;27;19943;-82
2023/03/20 10:31:01;;;;;;;;;;;11.20;99.90;;;;;;5084957;28;19930;-82
2023/03/20 10:33:33;;;;;;;;;;;11.20;99.90;;;;;;5104161;28;19924;-82
2023/03/20 10:36:02;;;;;;;;;;;11.20;99.90;;;;;;5106630;28;20014;-82
2023/03/20 10:38:40;;;;;;;;;;;11.10;99.90;;;;;;5086483;27;19927;-82
2023/03/20 10:41:10;;;;;;;;;;;11.10;99.90;;;;;;5105484;28;20393;-83
2023/03/20 10:43:38;;;;;;;;;;;11.10;99.90;;;;;;5087439;28;19974;-82
2023/03/20 10:46:07;;;;;;;;;;;11.10;99.90;;;;;;5086754;28;20343;-83
2023/03/20 10:48:35;;;;;;;;;;;11.10;99.90;;;;;;5078371;28;19967;-82
2023/03/20 10:51:02;;;;;;;;;;;11.10;99.90;;;;;;5135230;27;19928;-81
2023/03/20 10:53:31;;;;;;;;;;;11.20;99.90;;;;;;5093132;28;19925;-81
2023/03/20 10:56:01;;;;;;;;;;;11.20;99.90;;;;;;5095557;27;19923;-82
2023/03/20 10:58:30;;;;;;;;;;;11.20;99.90;;;;;;5083227;28;19931;-82
2023/03/20 11:00:57;;;;;;;;;;;11.10;99.90;;;;;;5079651;28;19924;-82
2023/03/20 11:03:27;;;;;;;;;;;11.10;99.90;;;;;;5102007;28;19979;-81
2023/03/20 11:05:55;;;;;;;;;;;11.10;99.90;;;;;;5086069;28;20010;-82
2023/03/20 11:08:24;;;;;;;;;;;11.00;99.90;;;;;;5102051;28;20002;-82
2023/03/20 11:10:56;;;;;;;;;;;11.00;99.90;;;;;;5109603;27;19932;-82
2023/03/20 11:13:25;;;;;;;;;;;11.10;99.90;;;;;;5083861;28;19924;-83
2023/03/20 11:15:51;;;;;;;;;;;11.10;99.90;;;;;;5100393;28;19980;-82
2023/03/20 11:18:17;;;;;;;;;;;11.00;99.90;;;;;;5079602;28;19924;-82
2023/03/20 11:20:43;;;;;;;;;;;10.90;99.90;;;;;;5067580;28;19924;-83
2023/03/20 11:23:13;;;;;;;;;;;10.70;99.90;;;;;;5095940;28;19933;-81
2023/03/20 11:25:46;;;;;;;;;;;10.60;99.90;;;;;;5070733;28;20307;-83
2023/03/20 11:28:19;;;;;;;;;;;10.50;99.90;;;;;;5083651;27;20374;-82
2023/03/20 11:30:46;;;;;;;;;;;10.50;99.90;;;;;;5111534;28;19924;-83
2023/03/20 11:33:12;;;;;;;;;;;10.50;99.90;;;;;;5131829;27;19923;-83
2023/03/20 11:35:43;;;;;;;;;;;10.50;99.90;;;;;;5097669;28;19963;-82
2023/03/20 11:38:12;;;;;;;;;;;10.60;99.90;;;;;;5084955;28;19934;-83
2023/03/20 11:40:38;;;;;;;;;;;10.70;99.90;;;;;;5103608;28;19923;-83
2023/03/20 11:43:09;;;;;;;;;;;10.70;99.90;;;;;;5082060;28;20298;-82
2023/03/20 11:45:43;;;;;;;;;;;10.70;99.90;;;;;;5101407;28;19945;-84
2023/03/20 11:48:19;;;;;;;;;;;10.70;99.90;;;;;;5101508;28;19961;-84
2023/03/20 11:50:46;;;;;;;;;;;10.70;99.90;;;;;;5086148;28;20023;-84
2023/03/20 11:53:31;;;;;;;;;;;10.80;99.90;;;;;;5086413;28;19931;-83
2023/03/20 11:56:06;;;;;;;;;;;10.80;99.90;;;;;;5084468;28;19930;-83
2023/03/20 11:58:32;;;;;;;;;;;10.80;99.90;;;;;;5096644;28;19931;-84
2023/03/20 12:00:58;;;;;;;;;;;10.90;99.90;;;;;;5083131;27;19924;-83
2023/03/20 12:03:41;;;;;;;;;;;11.00;99.90;;;;;;5113849;28;19927;-83
2023/03/20 12:06:08;;;;;;;;;;;11.00;99.90;;;;;;5091402;28;19984;-82
2023/03/20 12:08:35;;;;;;;;;;;11.00;99.90;;;;;;5098276;28;19970;-80
2023/03/20 12:11:16;;;;;;;;;;;11.00;99.90;;;;;;5093425;28;19923;-80
2023/03/20 12:13:44;;;;;;;;;;;10.90;99.90;;;;;;5078139;28;19927;-84
2023/03/20 12:16:12;;;;;;;;;;;10.90;99.90;;;;;;5094121;28;19924;-82
2023/03/20 12:18:44;;;;;;;;;;;10.90;99.90;;;;;;5102357;28;20299;-81
2023/03/20 12:21:12;;;;;;;;;;;10.90;99.90;;;;;;5084952;28;20409;-82
2023/03/20 12:23:50;;;;;;;;;;;11.00;99.90;;;;;;5076855;28;19927;-82
2023/03/20 12:26:21;;;;;;;;;;;11.00;99.90;;;;;;5104113;28;19928;-80
2023/03/20 12:29:00;;;;;;;;;;;11.10;99.90;;;;;;5087778;28;19935;-80
2023/03/20 12:31:38;;;;;;;;;;;11.10;99.90;;;;;;5081390;28;19924;-81
2023/03/20 12:34:10;;;;;;;;;;;11.10;99.90;;;;;;5101649;28;19924;-80
2023/03/20 12:36:47;;;;;;;;;;;11.00;99.90;;;;;;5097392;28;20464;-80
2023/03/20 12:39:14;;;;;;;;;;;10.90;99.90;;;;;;5079418;28;19924;-80
2023/03/20 12:41:55;;;;;;;;;;;10.70;99.90;;;;;;5101065;28;19977;-79
2023/03/20 12:44:27;;;;;;;;;;;10.60;99.90;;;;;;5084705;28;20008;-81
2023/03/20 12:46:55;;;;;;;;;;;10.50;99.90;;;;;;5066100;28;19927;-80
2023/03/20 12:49:36;;;;;;;;;;;10.40;99.90;;;;;;5101620;28;19950;-81
2023/03/20 12:52:21;;;;;;;;;;;10.30;99.90;;;;;;5090510;27;19991;-80
2023/03/20 12:54:52;;;;;;;;;;;10.20;99.90;;;;;;5084587;28;19939;-81
2023/03/20 12:57:25;;;;;;;;;;;10.10;99.90;;;;;;5107834;28;19969;-80
2023/03/20 13:00:00;;;;;;;;;;;10.00;99.90;;;;;;5080467;28;19924;-80
2023/03/20 13:02:49;;;;;;;;;;;9.90;99.90;;;;;;5121126;27;19970;-80
2023/03/20 13:05:24;;;;;;;;;;;9.80;99.90;;;;;;5085482;27;19924;-80
2023/03/20 13:08:08;;;;;;;;;;;9.70;99.90;;;;;;5079105;28;19928;-80
2023/03/20 13:10:42;;;;;;;;;;;9.60;99.90;;;;;;5089453;28;19949;-80
2023/03/20 13:13:24;;;;;;;;;;;9.60;99.90;;;;;;5134156;27;19989;-80
2023/03/20 13:15:50;;;;;;;;;;;9.50;99.90;;;;;;5085879;28;19951;-80
2023/03/20 13:18:16;;;;;;;;;;;9.40;99.90;;;;;;5098335;28;19936;-80
2023/03/20 13:20:50;;;;;;;;;;;9.40;99.90;;;;;;5110295;28;19934;-80
2023/03/20 13:23:22;;;;;;;;;;;9.40;99.90;;;;;;5095594;28;19946;-81
2023/03/20 13:25:48;;;;;;;;;;;9.40;99.90;;;;;;5084670;28;19994;-79
2023/03/20 13:28:19;;;;;;;;;;;9.40;99.90;;;;;;5078510;28;19931;-80
2023/03/20 13:30:53;;;;;;;;;;;9.40;99.90;;;;;;5117960;27;20011;-80
2023/03/20 13:33:19;;;;;;;;;;;9.30;99.90;;;;;;5135183;27;20433;-80
2023/03/20 13:35:49;;;;;;;;;;;9.30;99.90;;;;;;5094679;28;19935;-80
2023/03/20 13:38:20;;;;;;;;;;;9.30;99.90;;;;;;5080477;28;19934;-80
2023/03/20 13:40:46;;;;;;;;;;;9.30;99.90;;;;;;5094163;28;19924;-80
2023/03/20 13:43:23;;;;;;;;;;;9.30;99.90;;;;;;5096779;28;20406;-81
2023/03/20 13:45:50;;;;;;;;;;;9.30;99.90;;;;;;5112566;28;20010;-80
2023/03/20 13:48:36;;;;;;;;;;;9.20;99.90;;;;;;5102003;28;19928;-81
2023/03/20 13:51:21;;;;;;;;;;;9.20;99.90;;;;;;5117521;28;19994;-81
2023/03/20 13:54:01;;;;;;;;;;;9.20;99.90;;;;;;5107810;28;20331;-81
2023/03/20 13:57:06;;;;;;;;;;;9.10;99.90;;;;;;5077672;28;19924;-81
2023/03/20 13:59:50;;;;;;;;;;;9.10;99.90;;;;;;4978016;28;19925;-82
2023/03/20 14:02:21;;;;;;;;;;;9.10;99.90;;;;;;4983768;28;19930;-83
2023/03/20 14:04:50;;;;;;;;;;;9.00;99.90;;;;;;5045101;28;20402;-83
2023/03/20 14:07:26;;;;;;;;;;;8.90;99.90;;;;;;5083958;28;19927;-81
2023/03/20 14:09:53;;;;;;;;;;;8.90;99.90;;;;;;5098798;28;19931;-82
2023/03/20 14:12:22;;;;;;;;;;;8.90;99.90;;;;;;5072724;28;19931;-82
2023/03/20 14:14:51;;;;;;;;;;;8.90;99.90;;;;;;5082554;28;19928;-82
2023/03/20 14:17:23;;;;;;;;;;;9.00;99.90;;;;;;5071144;28;19950;-82
2023/03/20 14:19:50;;;;;;;;;;;8.90;99.90;;;;;;5101552;28;19927;-82
2023/03/20 14:22:21;;;;;;;;;;;8.90;99.90;;;;;;5099761;28;19924;-82
2023/03/20 14:24:57;;;;;;;;;;;8.90;99.90;;;;;;5109467;28;19932;-82
2023/03/20 14:27:24;;;;;;;;;;;8.90;99.90;;;;;;5080805;28;19932;-82
2023/03/20 14:29:50;;;;;;;;;;;8.90;99.90;;;;;;5102143;28;19983;-82
2023/03/20 14:32:15;;;;;;;;;;;8.90;99.90;;;;;;5085165;28;19924;-82
2023/03/20 14:34:44;;;;;;;;;;;8.90;99.90;;;;;;5121250;28;19924;-82